Aviation Digital Data Service (ADDS)

Output produced by METARs form (0849 UTC 25 September 2016)
found at http://aviationweather.gov/adds/metars/
 
KPGV 250546Z 2506/2606 06005KT P6SM OVC007 
     TEMPO 2508/2512 OVC005 
     FM251400 06005KT P6SM OVC015 
     FM251800 05007KT P6SM BKN035 AMD LTD TO CLD VIS AND WIND